Dobrota — J8UW4 — position and weather

sailwx.info

Track history (hours):
 
Tides and Currents Weather Stations Pressure Air Temp Water Temp Dewpoint Dewpoint Depression Visibility Wind Speed Wind Dir Waves Ship Positions

Dobrota

Last reported at 2014-Aug-27 18:31 UTC. Time now 2014-Sep-01 07:35 UTC.
Position N 44°27' E 037°41'.

Length 185 m; draft 6.1 m.

Type: Cargo ship. MMSI: 376409000.

Date/timePositionNaut miles runAvg speedWind from/ knotsBaromVisibWave heightAir tempDewpointWater temp
2014-Aug-27 18:31N 44°27' E 037°41'1111.6
2014-Aug-27 17:33N 44°37' E 037°49'5 4.4
2014-Aug-27 16:30N 44°41' E 037°51'0 0.0
2014-Aug-27 15:33N 44°41' E 037°51'0 0.0
2014-Aug-27 14:33N 44°41' E 037°51'0 0.0
2014-Aug-27 13:27N 44°41' E 037°51'0 0.0
2014-Aug-27 12:33N 44°41' E 037°51'0 0.0
2014-Aug-27 11:33N 44°41' E 037°51'0 0.0
2014-Aug-27 10:33N 44°41' E 037°51'0 0.0
2014-Aug-27 09:33N 44°41' E 037°51'0 0.0
2014-Aug-27 08:33N 44°41' E 037°51'0 0.0
2014-Aug-27 07:33N 44°41' E 037°51'0 0.1
2014-Aug-27 06:33N 44°41' E 037°51'0 0.1
2014-Aug-27 05:33N 44°41' E 037°51'0 0.0
2014-Aug-27 04:33N 44°41' E 037°51'0 0.0
2014-Aug-27 03:33N 44°41' E 037°51'0 0.0
2014-Aug-27 02:30N 44°41' E 037°51'0 0.0
2014-Aug-27 01:33N 44°41' E 037°51'0 0.0
2014-Aug-27 00:33N 44°41' E 037°51'0 0.0
2014-Aug-26 23:33N 44°41' E 037°51'0 0.1
2014-Aug-26 22:33N 44°41' E 037°51'0 0.1
2014-Aug-26 21:33N 44°41' E 037°51'0 0.1
2014-Aug-26 20:33N 44°41' E 037°51'3 2.9
2014-Aug-26 19:33N 44°43' E 037°48'1 0.9
2014-Aug-26 18:33N 44°44' E 037°47'0 0.0
2014-Aug-26 17:32N 44°44' E 037°47'0 0.0
2014-Aug-26 16:32N 44°44' E 037°47'0 0.0
2014-Aug-26 15:32N 44°44' E 037°47'0 0.0
2014-Aug-26 14:32N 44°44' E 037°47'0 0.0
2014-Aug-26 13:32N 44°44' E 037°47'0 0.0
2014-Aug-26 12:32N 44°44' E 037°47'0 0.0
2014-Aug-26 11:32N 44°44' E 037°47'0 0.0
2014-Aug-26 10:32N 44°44' E 037°47'0 0.0
2014-Aug-26 09:32N 44°44' E 037°47'0 0.0
2014-Aug-26 08:32N 44°44' E 037°47'0 0.0
2014-Aug-26 07:32N 44°44' E 037°47'0 0.0
2014-Aug-26 06:32N 44°44' E 037°47'0 0.0
2014-Aug-26 05:32N 44°44' E 037°47'0 0.0
2014-Aug-26 04:32N 44°44' E 037°47'0 0.0
2014-Aug-26 03:32N 44°44' E 037°47'0 0.0
2014-Aug-26 02:32N 44°44' E 037°47'0 0.0
2014-Aug-26 01:32N 44°44' E 037°47'0 0.0
2014-Aug-26 00:32N 44°44' E 037°47'0 0.0
2014-Aug-25 23:32N 44°44' E 037°47'0 0.0
2014-Aug-25 22:32N 44°44' E 037°47'0 0.0
2014-Aug-25 21:32N 44°44' E 037°47'0 0.0
2014-Aug-25 20:32N 44°44' E 037°47'0 0.0
2014-Aug-25 19:29N 44°44' E 037°47'0 0.0
2014-Aug-25 18:32N 44°44' E 037°47'0 0.0
2014-Aug-25 17:23N 44°44' E 037°47'0 0.0
2014-Aug-25 16:32N 44°44' E 037°47'0 0.0
2014-Aug-25 15:32N 44°44' E 037°47'0 0.0
2014-Aug-25 14:32N 44°44' E 037°47'0 0.0
2014-Aug-25 13:32N 44°44' E 037°47'0 0.0
2014-Aug-25 12:32N 44°44' E 037°47'0 0.0
2014-Aug-25 11:32N 44°44' E 037°47'0 0.1
2014-Aug-25 10:33N 44°44' E 037°47'7 6.8
2014-Aug-25 09:33N 44°38' E 037°52'4 3.9
2014-Aug-25 08:33N 44°35' E 037°56'0 0.0
2014-Aug-25 07:33N 44°35' E 037°56'0 0.0
2014-Aug-25 06:33N 44°35' E 037°56'0 0.1
2014-Aug-25 05:33N 44°35' E 037°55'0 0.1
2014-Aug-25 04:33N 44°35' E 037°55'3 2.9
2014-Aug-25 03:33N 44°33' E 037°52'6 6.2
2014-Aug-25 02:33N 44°30' E 037°45'1110.7
2014-Aug-25 01:30N 44°24' E 037°31'6112.3
2014-Aug-24 20:33N 43°56' E 036°16'1312.7
2014-Aug-24 19:33N 43°49' E 036°01'6 5.6
2014-Aug-24 18:34N 43°46' E 035°54'7 6.9
2014-Aug-24 17:32N 43°43' E 035°46'2612.4
2014-Aug-24 15:28N 43°29' E 035°15'1212.4
2014-Aug-24 14:33N 43°23' E 035°02'1312.7
2014-Aug-24 13:33N 43°18' E 034°47'  
2014-Aug-21 23:25N 40°60' E 028°60'7 7.8
2014-Aug-21 22:33N 40°54' E 028°56'6 4.9
2014-Aug-21 21:24N 40°49' E 028°51'1 0.6
2014-Aug-21 20:31N 40°49' E 028°51'0 0.5
2014-Aug-21 19:33N 40°48' E 028°51'1 0.5
2014-Aug-21 18:24N 40°48' E 028°51'0 0.3
2014-Aug-21 17:32N 40°48' E 028°51'0 0.2
2014-Aug-21 16:33N 40°47' E 028°51'0 0.2
2014-Aug-21 15:33N 40°47' E 028°51'0 0.3
2014-Aug-21 14:33N 40°47' E 028°50'0 0.1
2014-Aug-21 13:33N 40°47' E 028°50'4 3.8
2014-Aug-21 12:33N 40°50' E 028°54'2 2.0
2014-Aug-21 11:33N 40°51' E 028°57'0 0.1
2014-Aug-21 10:28N 40°51' E 028°56'0 0.4
2014-Aug-21 09:31N 40°51' E 028°56'5 4.9
2014-Aug-21 08:28N 40°50' E 028°49'13811.2
2014-Aug-20 20:12N 39°59' E 026°02'810.8
2014-Aug-20 19:29N 39°53' E 025°55'8 8.1
2014-Aug-20 18:27N 39°46' E 025°49'1 0.6
2014-Aug-20 16:32N 39°47' E 025°50'10 8.0
2014-Aug-20 15:19N 39°39' E 025°42'912.3
2014-Aug-20 14:33N 39°32' E 025°35'1312.3
2014-Aug-20 13:30N 39°20' E 025°28'1512.6
2014-Aug-20 12:17N 39°06' E 025°19'912.6
2014-Aug-20 11:33N 38°58' E 025°14'1312.3
2014-Aug-20 10:31N 38°46' E 025°07'1312.3
2014-Aug-20 09:27N 38°34' E 025°01'1111.7
2014-Aug-20 08:29N 38°24' E 024°56'3411.1
2014-Aug-20 05:23N 37°53' E 024°36'2211.6
2014-Aug-20 03:32N 37°33' E 024°25'1313.0
2014-Aug-20 02:33N 37°22' E 024°16'2812.4
2014-Aug-20 00:20N 36°60' E 023°57'  
Track history (hours):
 
Tides and Currents Weather Stations Pressure Air Temp Water Temp Dewpoint Dewpoint Depression Visibility Wind Speed Wind Dir Waves Ship Positions

Dobrota

Last reported at 2014-Aug-27 18:31 UTC. Time now 2014-Sep-01 07:35 UTC.
Position N 44°27' E 037°41'.

Length 185 m; draft 6.1 m.

Type: Cargo ship. MMSI: 376409000.

Date/timePositionNaut miles runAvg speedWind from/ knotsBaromVisibWave heightAir tempDewpointWater temp
2014-Aug-27 18:31N 44°27' E 037°41'1111.6
2014-Aug-27 17:33N 44°37' E 037°49'5 4.4
2014-Aug-27 16:30N 44°41' E 037°51'0 0.0
2014-Aug-27 15:33N 44°41' E 037°51'0 0.0
2014-Aug-27 14:33N 44°41' E 037°51'0 0.0
2014-Aug-27 13:27N 44°41' E 037°51'0 0.0
2014-Aug-27 12:33N 44°41' E 037°51'0 0.0
2014-Aug-27 11:33N 44°41' E 037°51'0 0.0
2014-Aug-27 10:33N 44°41' E 037°51'0 0.0
2014-Aug-27 09:33N 44°41' E 037°51'0 0.0
2014-Aug-27 08:33N 44°41' E 037°51'0 0.0
2014-Aug-27 07:33N 44°41' E 037°51'0 0.1
2014-Aug-27 06:33N 44°41' E 037°51'0 0.1
2014-Aug-27 05:33N 44°41' E 037°51'0 0.0
2014-Aug-27 04:33N 44°41' E 037°51'0 0.0
2014-Aug-27 03:33N 44°41' E 037°51'0 0.0
2014-Aug-27 02:30N 44°41' E 037°51'0 0.0
2014-Aug-27 01:33N 44°41' E 037°51'0 0.0
2014-Aug-27 00:33N 44°41' E 037°51'0 0.0
2014-Aug-26 23:33N 44°41' E 037°51'0 0.1
2014-Aug-26 22:33N 44°41' E 037°51'0 0.1
2014-Aug-26 21:33N 44°41' E 037°51'0 0.1
2014-Aug-26 20:33N 44°41' E 037°51'3 2.9
2014-Aug-26 19:33N 44°43' E 037°48'1 0.9
2014-Aug-26 18:33N 44°44' E 037°47'0 0.0
2014-Aug-26 17:32N 44°44' E 037°47'0 0.0
2014-Aug-26 16:32N 44°44' E 037°47'0 0.0
2014-Aug-26 15:32N 44°44' E 037°47'0 0.0
2014-Aug-26 14:32N 44°44' E 037°47'0 0.0
2014-Aug-26 13:32N 44°44' E 037°47'0 0.0
2014-Aug-26 12:32N 44°44' E 037°47'0 0.0
2014-Aug-26 11:32N 44°44' E 037°47'0 0.0
2014-Aug-26 10:32N 44°44' E 037°47'0 0.0
2014-Aug-26 09:32N 44°44' E 037°47'0 0.0
2014-Aug-26 08:32N 44°44' E 037°47'0 0.0
2014-Aug-26 07:32N 44°44' E 037°47'0 0.0
2014-Aug-26 06:32N 44°44' E 037°47'0 0.0
2014-Aug-26 05:32N 44°44' E 037°47'0 0.0
2014-Aug-26 04:32N 44°44' E 037°47'0 0.0
2014-Aug-26 03:32N 44°44' E 037°47'0 0.0
2014-Aug-26 02:32N 44°44' E 037°47'0 0.0
2014-Aug-26 01:32N 44°44' E 037°47'0 0.0
2014-Aug-26 00:32N 44°44' E 037°47'0 0.0
2014-Aug-25 23:32N 44°44' E 037°47'0 0.0
2014-Aug-25 22:32N 44°44' E 037°47'0 0.0
2014-Aug-25 21:32N 44°44' E 037°47'0 0.0
2014-Aug-25 20:32N 44°44' E 037°47'0 0.0
2014-Aug-25 19:29N 44°44' E 037°47'0 0.0
2014-Aug-25 18:32N 44°44' E 037°47'0 0.0
2014-Aug-25 17:23N 44°44' E 037°47'0 0.0
2014-Aug-25 16:32N 44°44' E 037°47'0 0.0
2014-Aug-25 15:32N 44°44' E 037°47'0 0.0
2014-Aug-25 14:32N 44°44' E 037°47'0 0.0
2014-Aug-25 13:32N 44°44' E 037°47'0 0.0
2014-Aug-25 12:32N 44°44' E 037°47'0 0.0
2014-Aug-25 11:32N 44°44' E 037°47'0 0.1
2014-Aug-25 10:33N 44°44' E 037°47'7 6.8
2014-Aug-25 09:33N 44°38' E 037°52'4 3.9
2014-Aug-25 08:33N 44°35' E 037°56'0 0.0
2014-Aug-25 07:33N 44°35' E 037°56'0 0.0
2014-Aug-25 06:33N 44°35' E 037°56'0 0.1
2014-Aug-25 05:33N 44°35' E 037°55'0 0.1
2014-Aug-25 04:33N 44°35' E 037°55'3 2.9
2014-Aug-25 03:33N 44°33' E 037°52'6 6.2
2014-Aug-25 02:33N 44°30' E 037°45'1110.7
2014-Aug-25 01:30N 44°24' E 037°31'6112.3
2014-Aug-24 20:33N 43°56' E 036°16'1312.7
2014-Aug-24 19:33N 43°49' E 036°01'6 5.6
2014-Aug-24 18:34N 43°46' E 035°54'7 6.9
2014-Aug-24 17:32N 43°43' E 035°46'2612.4
2014-Aug-24 15:28N 43°29' E 035°15'1212.4
2014-Aug-24 14:33N 43°23' E 035°02'1312.7
2014-Aug-24 13:33N 43°18' E 034°47'  
2014-Aug-21 23:25N 40°60' E 028°60'7 7.8
2014-Aug-21 22:33N 40°54' E 028°56'6 4.9
2014-Aug-21 21:24N 40°49' E 028°51'1 0.6
2014-Aug-21 20:31N 40°49' E 028°51'0 0.5
2014-Aug-21 19:33N 40°48' E 028°51'1 0.5
2014-Aug-21 18:24N 40°48' E 028°51'0 0.3
2014-Aug-21 17:32N 40°48' E 028°51'0 0.2
2014-Aug-21 16:33N 40°47' E 028°51'0 0.2
2014-Aug-21 15:33N 40°47' E 028°51'0 0.3
2014-Aug-21 14:33N 40°47' E 028°50'0 0.1
2014-Aug-21 13:33N 40°47' E 028°50'4 3.8
2014-Aug-21 12:33N 40°50' E 028°54'2 2.0
2014-Aug-21 11:33N 40°51' E 028°57'0 0.1
2014-Aug-21 10:28N 40°51' E 028°56'0 0.4
2014-Aug-21 09:31N 40°51' E 028°56'5 4.9
2014-Aug-21 08:28N 40°50' E 028°49'13811.2
2014-Aug-20 20:12N 39°59' E 026°02'810.8
2014-Aug-20 19:29N 39°53' E 025°55'8 8.1
2014-Aug-20 18:27N 39°46' E 025°49'1 0.6
2014-Aug-20 16:32N 39°47' E 025°50'10 8.0
2014-Aug-20 15:19N 39°39' E 025°42'912.3
2014-Aug-20 14:33N 39°32' E 025°35'1312.3
2014-Aug-20 13:30N 39°20' E 025°28'1512.6
2014-Aug-20 12:17N 39°06' E 025°19'912.6
2014-Aug-20 11:33N 38°58' E 025°14'1312.3
2014-Aug-20 10:31N 38°46' E 025°07'1312.3
2014-Aug-20 09:27N 38°34' E 025°01'1111.7
2014-Aug-20 08:29N 38°24' E 024°56'3411.1
2014-Aug-20 05:23N 37°53' E 024°36'2211.6
2014-Aug-20 03:32N 37°33' E 024°25'1313.0
2014-Aug-20 02:33N 37°22' E 024°16'2812.4
2014-Aug-20 00:20N 36°60' E 023°57'  

Dump ship's entire track history